createdAt,value
2023-04-25T00:00:28.146Z,1.50
2023-04-25T00:02:57.954Z,1.53
2023-04-25T00:05:26.044Z,1.23
2023-04-25T00:07:54.309Z,0.90
2023-04-25T00:10:22.659Z,1.77
2023-04-25T00:12:50.746Z,1.10
2023-04-25T00:15:18.781Z,1.13
2023-04-25T00:17:48.248Z,1.43
2023-04-25T00:20:16.665Z,1.13
2023-04-25T00:22:44.531Z,1.27
2023-04-25T00:25:12.492Z,1.10
2023-04-25T00:27:42.768Z,1.10
2023-04-25T00:30:11.776Z,1.20
2023-04-25T00:32:39.759Z,1.27
2023-04-25T00:35:09.841Z,0.97
2023-04-25T00:37:38.116Z,1.60
2023-04-25T00:40:08.933Z,1.17
2023-04-25T00:42:38.772Z,1.10
2023-04-25T00:45:09.222Z,1.30
2023-04-25T00:47:38.416Z,1.50
2023-04-25T00:50:09.373Z,1.10
2023-04-25T00:52:38.056Z,0.90
2023-04-25T00:55:07.425Z,1.43
2023-04-25T00:57:35.739Z,1.10
2023-04-25T01:00:06.251Z,1.00
2023-04-25T01:02:35.353Z,1.00
2023-04-25T01:05:03.729Z,1.33
2023-04-25T01:07:33.291Z,1.40
2023-04-25T01:10:01.683Z,1.43
2023-04-25T01:12:29.658Z,1.17
2023-04-25T01:14:57.675Z,1.47
2023-04-25T01:17:25.889Z,1.90
2023-04-25T01:19:53.924Z,1.33
2023-04-25T01:22:23.278Z,1.13
2023-04-25T01:24:51.442Z,1.43
2023-04-25T01:27:20.069Z,1.20
2023-04-25T01:29:48.567Z,1.70
2023-04-25T01:32:16.725Z,1.73
2023-04-25T01:34:44.679Z,1.67
2023-04-25T01:37:12.786Z,1.77
2023-04-25T01:39:42.571Z,1.20
2023-04-25T01:42:10.717Z,1.87
2023-04-25T01:44:38.727Z,1.40
2023-04-25T01:47:06.749Z,1.40
2023-04-25T01:49:34.675Z,1.20
2023-04-25T01:52:02.781Z,1.30
2023-04-25T01:54:30.750Z,1.23
2023-04-25T01:57:01.540Z,1.47
2023-04-25T01:59:29.450Z,1.10
2023-04-25T02:01:57.502Z,1.40
2023-04-25T02:04:25.641Z,1.47
2023-04-25T02:06:53.592Z,1.50
2023-04-25T02:09:21.462Z,1.47
2023-04-25T02:11:49.481Z,2.03
2023-04-25T02:14:18.939Z,2.00
2023-04-25T02:16:47.421Z,1.40
2023-04-25T02:19:16.367Z,1.57
2023-04-25T02:21:44.469Z,2.20
2023-04-25T02:24:12.572Z,1.77
2023-04-25T02:26:40.590Z,1.93
2023-04-25T02:29:09.044Z,1.30
2023-04-25T02:31:38.679Z,2.10
2023-04-25T02:34:06.590Z,1.70
2023-04-25T02:36:35.458Z,1.80
2023-04-25T02:39:04.083Z,2.07
2023-04-25T02:41:32.043Z,2.00
2023-04-25T02:43:59.935Z,1.83
2023-04-25T02:46:38.333Z,2.00
2023-04-25T02:49:08.908Z,1.60
2023-04-25T02:51:36.901Z,2.60
2023-04-25T02:54:05.167Z,1.80
2023-04-25T02:56:33.136Z,1.90
2023-04-25T02:59:01.680Z,2.37
2023-04-25T03:01:29.722Z,2.00
2023-04-25T03:03:57.698Z,1.97
2023-04-25T03:06:27.030Z,2.13
2023-04-25T03:08:55.110Z,2.33
2023-04-25T03:11:23.135Z,1.80
2023-04-25T03:13:51.305Z,1.47
2023-04-25T03:16:19.710Z,1.90
2023-04-25T03:18:47.571Z,1.50
2023-04-25T03:21:15.462Z,2.53
2023-04-25T03:23:44.931Z,1.90
2023-04-25T03:26:12.818Z,2.07
2023-04-25T03:28:41.112Z,1.73
2023-04-25T03:31:09.223Z,2.33
2023-04-25T03:33:37.158Z,1.80
2023-04-25T03:36:05.592Z,1.73
2023-04-25T03:38:33.581Z,3.07
2023-04-25T03:41:03.299Z,1.60
2023-04-25T03:43:31.308Z,2.07
2023-04-25T03:45:59.376Z,2.07
2023-04-25T03:48:28.004Z,1.63
2023-04-25T03:50:56.182Z,1.70
2023-04-25T03:53:24.131Z,2.50
2023-04-25T03:55:52.170Z,1.83
2023-04-25T03:58:21.454Z,1.43
2023-04-25T04:00:49.317Z,2.20
2023-04-25T04:03:17.424Z,2.00
2023-04-25T04:05:46.405Z,2.27
2023-04-25T04:08:14.362Z,2.00
2023-04-25T04:10:42.304Z,2.30
2023-04-25T04:13:10.184Z,2.20
2023-04-25T04:15:39.659Z,1.77
2023-04-25T04:18:07.638Z,2.53
2023-04-25T04:20:35.714Z,2.17
2023-04-25T04:23:04.116Z,2.17
2023-04-25T04:25:32.105Z,1.77
2023-04-25T04:28:00.270Z,2.57
2023-04-25T04:30:30.586Z,1.93
2023-04-25T04:33:00.168Z,1.97
2023-04-25T04:35:28.102Z,1.70
2023-04-25T04:37:56.506Z,2.23
2023-04-25T04:40:24.456Z,2.20
2023-04-25T04:42:52.554Z,1.70
2023-04-25T04:45:21.567Z,2.10
2023-04-25T04:47:49.850Z,1.83
2023-04-25T04:50:19.355Z,2.13
2023-04-25T04:52:47.342Z,2.43
2023-04-25T04:55:15.244Z,2.10
2023-04-25T04:57:43.404Z,2.40
2023-04-25T05:00:13.215Z,3.03
2023-04-25T05:02:41.398Z,2.43
2023-04-25T05:05:10.007Z,1.90
2023-04-25T05:07:39.504Z,2.63
2023-04-25T05:10:08.560Z,2.73
2023-04-25T05:12:37.262Z,2.00
2023-04-25T05:15:05.943Z,2.17
2023-04-25T05:17:34.094Z,2.53
2023-04-25T05:20:02.710Z,2.20
2023-04-25T05:22:30.605Z,2.30
2023-04-25T05:24:59.785Z,2.80
2023-04-25T05:27:27.895Z,2.37
2023-04-25T05:29:55.948Z,2.70
2023-04-25T05:32:24.562Z,3.07
2023-04-25T05:34:52.835Z,1.70
2023-04-25T05:37:20.767Z,1.90
2023-04-25T05:39:48.903Z,2.40
2023-04-25T05:42:18.227Z,2.20
2023-04-25T05:44:46.801Z,2.30
2023-04-25T05:47:14.711Z,2.50
2023-04-25T05:49:42.771Z,2.67
2023-04-25T05:52:10.720Z,2.13
2023-04-25T05:54:38.569Z,2.80
2023-04-25T05:57:06.471Z,2.27
2023-04-25T05:59:36.014Z,2.43
2023-04-25T06:02:03.978Z,2.73
2023-04-25T06:04:32.104Z,1.83
2023-04-25T06:07:00.167Z,2.30
2023-04-25T06:09:28.255Z,2.00
2023-04-25T06:11:56.260Z,2.17
2023-04-25T06:14:29.448Z,1.93
2023-04-25T06:16:58.991Z,2.60
2023-04-25T06:19:27.046Z,2.87
2023-04-25T06:21:54.965Z,2.10
2023-04-25T06:24:22.986Z,2.53
2023-04-25T06:26:50.991Z,2.63
2023-04-25T06:29:18.860Z,3.00
2023-04-25T06:31:47.058Z,2.50
2023-04-25T06:34:16.339Z,2.20
2023-04-25T06:36:45.560Z,2.03
2023-04-25T06:39:13.501Z,1.87
2023-04-25T06:41:41.826Z,2.47
2023-04-25T06:44:09.765Z,2.13
2023-04-25T06:46:38.793Z,2.50
2023-04-25T06:49:07.036Z,1.87
2023-04-25T06:51:36.299Z,1.60
2023-04-25T06:54:05.164Z,1.97
2023-04-25T06:56:33.245Z,1.87
2023-04-25T06:59:01.818Z,1.40
2023-04-25T07:01:29.991Z,1.97
2023-04-25T07:03:58.170Z,2.57
2023-04-25T07:06:27.943Z,1.70
2023-04-25T07:08:57.211Z,1.73
2023-04-25T07:11:28.037Z,1.00
2023-04-25T07:13:56.098Z,1.67
2023-04-25T07:16:24.116Z,2.33
2023-04-25T07:18:52.436Z,1.60
2023-04-25T07:21:20.751Z,1.97
2023-04-25T07:23:48.952Z,1.83
2023-04-25T07:26:18.439Z,1.60
2023-04-25T07:28:46.839Z,2.27
2023-04-25T07:31:14.712Z,2.27
2023-04-25T07:33:42.629Z,2.30
2023-04-25T07:36:11.199Z,2.17
2023-04-25T07:38:39.075Z,2.20
2023-04-25T07:41:07.092Z,1.60
2023-04-25T07:43:36.421Z,1.60
2023-04-25T07:46:04.614Z,1.77
2023-04-25T07:48:32.546Z,2.40
2023-04-25T07:51:00.539Z,2.40
2023-04-25T07:53:28.495Z,2.50
2023-04-25T07:55:56.447Z,2.10
2023-04-25T07:58:24.442Z,1.80
2023-04-25T08:00:53.791Z,1.83
2023-04-25T08:03:22.752Z,2.37
2023-04-25T08:05:50.998Z,1.73
2023-04-25T08:08:18.950Z,2.17
2023-04-25T08:10:47.104Z,2.40
2023-04-25T08:13:15.048Z,2.60
2023-04-25T08:15:43.039Z,1.67
2023-04-25T08:18:12.592Z,1.90
2023-04-25T08:20:41.581Z,2.10
2023-04-25T08:23:12.140Z,1.83
2023-04-25T08:25:40.033Z,2.10
2023-04-25T08:28:08.062Z,2.07
2023-04-25T08:30:36.079Z,1.90
2023-04-25T08:33:04.068Z,1.87
2023-04-25T08:35:34.090Z,2.53
2023-04-25T08:38:02.220Z,1.60
2023-04-25T08:40:31.278Z,2.27
2023-04-25T08:43:00.962Z,1.33
2023-04-25T08:45:29.921Z,2.03
2023-04-25T08:47:59.726Z,2.37
2023-04-25T08:50:27.798Z,1.33
2023-04-25T08:53:02.826Z,2.23
2023-04-25T08:55:31.657Z,1.97
2023-04-25T08:58:01.792Z,1.30
2023-04-25T09:00:30.617Z,2.07
2023-04-25T09:03:00.204Z,1.90
2023-04-25T09:05:29.665Z,1.40
2023-04-25T09:07:59.235Z,1.70
2023-04-25T09:10:27.984Z,1.40
2023-04-25T09:13:06.716Z,2.00
2023-04-25T09:15:35.679Z,1.30
2023-04-25T09:18:06.061Z,1.70
2023-04-25T09:20:37.642Z,1.67
2023-04-25T09:23:14.572Z,1.73
2023-04-25T09:28:37.662Z,1.60
2023-04-25T09:31:15.191Z,1.40
2023-04-25T09:33:43.573Z,2.00
2023-04-25T09:36:26.197Z,1.47
2023-04-25T09:38:56.935Z,1.50
2023-04-25T09:41:25.930Z,1.50
2023-04-25T09:43:53.893Z,1.43
2023-04-25T09:46:22.071Z,1.40
2023-04-25T09:48:51.808Z,1.30
2023-04-25T09:51:19.715Z,1.33
2023-04-25T09:53:51.013Z,1.70
2023-04-25T09:56:22.814Z,1.40
2023-04-25T09:58:55.791Z,1.83
2023-04-25T10:01:25.211Z,1.17
2023-04-25T10:03:55.547Z,1.13
2023-04-25T10:06:27.428Z,1.37
2023-04-25T10:08:56.862Z,1.00
2023-04-25T10:11:28.274Z,1.33
2023-04-25T10:13:56.679Z,1.47
2023-04-25T10:16:25.170Z,1.47
2023-04-25T10:18:53.702Z,1.90
2023-04-25T10:21:23.901Z,1.10
2023-04-25T10:23:52.594Z,1.10
2023-04-25T10:26:21.423Z,1.47
2023-04-25T10:29:00.514Z,0.87
2023-04-25T10:31:29.001Z,1.37
2023-04-25T10:33:57.545Z,1.10
2023-04-25T10:36:28.362Z,1.13
2023-04-25T10:38:56.387Z,1.13
2023-04-25T10:41:24.968Z,1.10
2023-04-25T10:44:03.297Z,1.80
2023-04-25T10:46:32.254Z,1.07
2023-04-25T10:49:02.732Z,0.93
2023-04-25T10:51:43.387Z,1.13
2023-04-25T10:54:21.237Z,1.10
2023-04-25T10:56:51.150Z,1.30
2023-04-25T10:59:22.495Z,1.30
2023-04-25T11:01:54.004Z,1.20
2023-04-25T11:04:23.585Z,1.10
2023-04-25T11:07:09.650Z,1.00
2023-04-25T11:09:38.425Z,1.20
2023-04-25T11:12:09.043Z,1.50
2023-04-25T11:17:10.000Z,1.13
2023-04-25T11:19:38.014Z,1.10
2023-04-25T11:22:07.095Z,1.47
2023-04-25T11:24:37.435Z,1.10
2023-04-25T11:27:06.723Z,0.93
2023-04-25T11:29:36.022Z,1.00
2023-04-25T11:32:06.176Z,1.27
2023-04-25T11:34:35.307Z,1.10
2023-04-25T11:37:04.378Z,1.37
2023-04-25T11:39:32.425Z,1.00
2023-04-25T11:42:01.534Z,1.17
2023-04-25T11:44:30.712Z,1.13
2023-04-25T11:46:59.979Z,1.00
2023-04-25T11:49:32.769Z,0.90
2023-04-25T11:52:01.020Z,1.20
2023-04-25T11:54:29.224Z,0.83
2023-04-25T11:56:57.558Z,0.73
2023-04-25T11:59:27.442Z,1.10
2023-04-25T12:01:56.008Z,1.07
2023-04-25T12:04:25.505Z,1.23
2023-04-25T12:06:56.643Z,0.90
2023-04-25T12:09:31.176Z,1.30
2023-04-25T12:12:00.606Z,0.93
2023-04-25T12:14:32.542Z,1.07
2023-04-25T12:17:19.748Z,0.90
2023-04-25T12:19:49.501Z,0.93
2023-04-25T12:22:26.809Z,1.10
2023-04-25T12:24:55.443Z,1.13
2023-04-25T12:27:23.503Z,1.33
2023-04-25T12:29:55.674Z,1.37
2023-04-25T12:32:24.968Z,0.97
2023-04-25T12:34:53.337Z,1.47
2023-04-25T12:37:21.999Z,0.87
2023-04-25T12:39:51.705Z,1.00
2023-04-25T12:42:19.853Z,1.00
2023-04-25T12:44:49.717Z,1.10
2023-04-25T12:47:22.538Z,1.00
2023-04-25T12:49:51.079Z,0.77
2023-04-25T12:52:19.466Z,1.30
2023-04-25T12:54:47.741Z,1.20
2023-04-25T12:57:17.889Z,1.10
2023-04-25T12:59:46.211Z,1.37
2023-04-25T13:02:14.620Z,1.10
2023-04-25T13:04:42.944Z,1.27
2023-04-25T13:07:11.610Z,1.80
2023-04-25T13:09:40.021Z,1.33
2023-04-25T13:12:08.865Z,1.20
2023-04-25T13:14:38.412Z,0.97
2023-04-25T13:17:06.514Z,1.60
2023-04-25T13:19:34.880Z,1.37
2023-04-25T13:22:05.432Z,1.37
2023-04-25T13:24:34.121Z,1.27
2023-04-25T13:27:02.784Z,1.47
2023-04-25T13:29:30.973Z,1.40
2023-04-25T13:32:00.394Z,1.10
2023-04-25T13:34:28.463Z,0.80
2023-04-25T13:36:56.713Z,1.33
2023-04-25T13:39:24.815Z,1.50
2023-04-25T13:41:52.778Z,1.03
2023-04-25T13:44:20.825Z,0.97
2023-04-25T13:46:49.004Z,1.00
2023-04-25T13:49:18.810Z,1.10
2023-04-25T13:51:47.061Z,1.40
2023-04-25T13:54:15.144Z,1.07
2023-04-25T13:56:43.592Z,1.00
2023-04-25T13:59:11.947Z,1.00
2023-04-25T14:01:40.018Z,1.43
2023-04-25T14:04:08.092Z,1.20
2023-04-25T14:06:37.756Z,1.10
2023-04-25T14:09:07.789Z,0.73
2023-04-25T14:11:35.864Z,1.03
2023-04-25T14:14:03.858Z,1.30
2023-04-25T14:16:32.438Z,1.40
2023-04-25T14:19:01.370Z,1.23
2023-04-25T14:21:29.503Z,1.10
2023-04-25T14:23:58.815Z,0.93
2023-04-25T14:26:26.947Z,1.83
2023-04-25T14:28:54.880Z,1.27
2023-04-25T14:31:23.250Z,1.60
2023-04-25T14:33:51.675Z,1.93
2023-04-25T14:36:19.885Z,0.90
2023-04-25T14:38:47.831Z,1.17
2023-04-25T14:41:17.162Z,2.17
2023-04-25T14:43:46.136Z,1.40
2023-04-25T14:46:14.655Z,1.40
2023-04-25T14:48:42.867Z,1.27
2023-04-25T14:51:10.773Z,1.10
2023-04-25T14:53:38.912Z,1.23
2023-04-25T14:56:08.245Z,1.40
2023-04-25T14:58:37.940Z,1.73
2023-04-25T15:01:06.260Z,1.40
2023-04-25T15:03:34.587Z,1.70
2023-04-25T15:06:02.651Z,1.53
2023-04-25T15:08:30.990Z,1.40
2023-04-25T15:10:59.346Z,1.90
2023-04-25T15:13:28.002Z,1.20
2023-04-25T15:15:57.320Z,1.33
2023-04-25T15:18:25.930Z,1.07
2023-04-25T15:20:54.985Z,1.97
2023-04-25T15:23:23.639Z,1.23
2023-04-25T15:25:53.605Z,1.00
2023-04-25T15:28:22.434Z,1.33
2023-04-25T15:30:51.470Z,1.30
2023-04-25T15:33:21.037Z,1.10
2023-04-25T15:35:49.028Z,0.90
2023-04-25T15:38:16.977Z,1.00
2023-04-25T15:40:45.162Z,1.17
2023-04-25T15:43:16.106Z,1.00
2023-04-25T15:45:45.555Z,1.27
2023-04-25T15:48:13.798Z,0.80
2023-04-25T15:50:43.598Z,1.50
2023-04-25T15:53:11.692Z,0.90
2023-04-25T15:55:39.737Z,0.80
2023-04-25T15:58:08.206Z,1.20
2023-04-25T16:00:38.017Z,0.80
2023-04-25T16:03:06.380Z,1.43
2023-04-25T16:05:34.550Z,1.20
2023-04-25T16:08:04.649Z,0.70
2023-04-25T16:10:33.657Z,1.40
2023-04-25T16:13:01.568Z,2.10
2023-04-25T16:15:29.551Z,1.67
2023-04-25T16:17:57.540Z,1.00
2023-04-25T16:20:25.593Z,0.97
2023-04-25T16:22:53.676Z,0.83
2023-04-25T16:25:23.229Z,0.80
2023-04-25T16:27:51.976Z,0.97
2023-04-25T16:30:19.929Z,1.03
2023-04-25T16:32:47.913Z,0.77
2023-04-25T16:35:16.061Z,0.73
2023-04-25T16:37:44.497Z,1.37
2023-04-25T16:40:13.329Z,1.13
2023-04-25T16:42:42.598Z,0.90
2023-04-25T16:45:11.087Z,0.80
2023-04-25T16:47:38.968Z,0.70
2023-04-25T16:50:08.227Z,0.80
2023-04-25T16:52:36.121Z,0.40
2023-04-25T16:55:04.073Z,0.70
2023-04-25T16:57:32.409Z,0.40
2023-04-25T17:00:01.729Z,0.40
2023-04-25T17:02:29.880Z,0.50
2023-04-25T17:04:57.966Z,0.80
2023-04-25T17:07:25.873Z,0.80
2023-04-25T17:09:53.788Z,0.83
2023-04-25T17:12:22.405Z,0.80
2023-04-25T17:14:50.666Z,0.67
2023-04-25T17:17:21.384Z,0.93
2023-04-25T17:19:49.360Z,1.30
2023-04-25T17:22:17.547Z,0.50
2023-04-25T17:24:45.923Z,1.00
2023-04-25T17:27:13.845Z,0.70
2023-04-25T17:29:41.822Z,0.40
2023-04-25T17:32:11.485Z,0.67
2023-04-25T17:34:41.865Z,0.70
2023-04-25T17:37:15.275Z,0.60
2023-04-25T17:39:43.358Z,0.60
2023-04-25T17:42:11.768Z,1.13
2023-04-25T17:44:40.020Z,0.70
2023-04-25T17:47:08.821Z,0.90
2023-04-25T17:49:36.998Z,0.90
2023-04-25T17:52:07.490Z,0.50
2023-04-25T17:54:35.921Z,1.10
2023-04-25T17:57:04.814Z,0.63
2023-04-25T17:59:32.767Z,0.93
2023-04-25T18:02:01.359Z,1.27
2023-04-25T18:04:29.522Z,1.13
2023-04-25T18:06:58.214Z,0.77
2023-04-25T18:09:27.717Z,0.80
2023-04-25T18:11:56.504Z,1.13
2023-04-25T18:14:25.376Z,1.27
2023-04-25T18:16:54.781Z,0.57
2023-04-25T18:19:23.336Z,0.60
2023-04-25T18:21:54.330Z,0.97
2023-04-25T18:24:23.759Z,0.60
2023-04-25T18:26:54.686Z,0.90
2023-04-25T18:31:57.334Z,1.03
2023-04-25T18:34:27.466Z,0.40
2023-04-25T18:36:56.556Z,0.57
2023-04-25T18:39:25.558Z,0.63
2023-04-25T18:42:03.299Z,0.70
2023-04-25T18:44:36.476Z,0.60
2023-04-25T18:47:04.465Z,0.70
2023-04-25T18:49:32.515Z,0.73
2023-04-25T18:52:00.832Z,0.47
2023-04-25T18:54:28.830Z,0.70
2023-04-25T18:56:58.117Z,0.90
2023-04-25T18:59:26.300Z,1.43
2023-04-25T19:01:54.667Z,0.53
2023-04-25T19:04:22.816Z,0.77
2023-04-25T19:06:51.369Z,0.73
2023-04-25T19:09:19.491Z,1.23
2023-04-25T19:11:47.557Z,0.63
2023-04-25T19:14:17.065Z,0.83
2023-04-25T19:16:48.242Z,0.83
2023-04-25T19:19:16.234Z,0.57
2023-04-25T19:21:44.130Z,0.90
2023-04-25T19:24:12.188Z,0.60
2023-04-25T19:26:42.092Z,0.90
2023-04-25T19:29:12.255Z,0.40
2023-04-25T19:31:43.205Z,0.90
2023-04-25T19:34:11.583Z,0.80
2023-04-25T19:36:40.779Z,1.00
2023-04-25T19:39:09.499Z,0.67
2023-04-25T19:41:38.989Z,0.67
2023-04-25T19:44:08.582Z,1.00
2023-04-25T19:46:37.771Z,0.43
2023-04-25T19:49:08.017Z,0.63
2023-04-25T19:51:37.510Z,0.50
2023-04-25T19:54:05.913Z,0.57
2023-04-25T19:56:33.909Z,0.83
2023-04-25T19:59:01.822Z,0.60
2023-04-25T20:01:30.522Z,0.67
2023-04-25T20:03:58.626Z,0.67
2023-04-25T20:06:29.079Z,0.80
2023-04-25T20:08:57.103Z,0.60
2023-04-25T20:11:28.516Z,0.83
2023-04-25T20:13:56.920Z,0.70
2023-04-25T20:16:25.077Z,0.87
2023-04-25T20:18:54.260Z,0.57
2023-04-25T20:21:23.833Z,0.70
2023-04-25T20:23:53.026Z,0.97
2023-04-25T20:26:22.779Z,0.77
2023-04-25T20:28:51.399Z,0.60
2023-04-25T20:31:19.808Z,1.13
2023-04-25T20:33:48.881Z,0.70
2023-04-25T20:36:16.856Z,0.80
2023-04-25T20:38:44.691Z,0.80
2023-04-25T20:41:14.006Z,0.93
2023-04-25T20:43:42.245Z,1.03
2023-04-25T20:46:10.339Z,1.23
2023-04-25T20:48:38.239Z,0.87
2023-04-25T20:51:07.269Z,0.70
2023-04-25T20:53:35.213Z,0.83
2023-04-25T20:56:04.441Z,1.00
2023-04-25T20:58:33.692Z,0.80
2023-04-25T21:01:02.010Z,0.50
2023-04-25T21:03:30.425Z,0.90
2023-04-25T21:05:58.585Z,0.70
2023-04-25T21:08:26.566Z,0.87
2023-04-25T21:10:54.498Z,0.80
2023-04-25T21:13:22.739Z,0.60
2023-04-25T21:15:52.144Z,0.50
2023-04-25T21:18:20.126Z,1.23
2023-04-25T21:20:48.107Z,0.87
2023-04-25T21:23:16.950Z,0.83
2023-04-25T21:25:44.942Z,0.60
2023-04-25T21:28:13.093Z,0.77
2023-04-25T21:30:42.492Z,0.47
2023-04-25T21:33:12.151Z,0.63
2023-04-25T21:35:40.083Z,0.90
2023-04-25T21:38:08.184Z,0.73
2023-04-25T21:40:36.619Z,0.53
2023-04-25T21:43:04.660Z,0.67
2023-04-25T21:45:32.617Z,0.80
2023-04-25T21:48:00.735Z,1.03
2023-04-25T21:50:30.070Z,0.70
2023-04-25T21:52:59.035Z,0.60
2023-04-25T21:55:27.522Z,1.30
2023-04-25T21:57:55.589Z,0.70
2023-04-25T22:00:27.477Z,0.53
2023-04-25T22:02:56.334Z,1.03
2023-04-25T22:05:26.608Z,0.83
2023-04-25T22:07:57.562Z,0.90
2023-04-25T22:10:26.209Z,1.17
2023-04-25T22:12:54.217Z,0.80
2023-04-25T22:15:23.790Z,1.63
2023-04-25T22:17:52.312Z,0.77
2023-04-25T22:20:24.190Z,0.60
2023-04-25T22:22:52.103Z,0.90
2023-04-25T22:25:22.072Z,0.60
2023-04-25T22:27:51.474Z,1.03
2023-04-25T22:30:19.816Z,0.93
2023-04-25T22:32:47.907Z,1.00
2023-04-25T22:35:15.993Z,0.77
2023-04-25T22:37:43.881Z,0.63
2023-04-25T22:40:13.322Z,0.63
2023-04-25T22:42:44.178Z,0.77
2023-04-25T22:45:12.944Z,0.80
2023-04-25T22:47:41.379Z,0.60
2023-04-25T22:50:13.525Z,0.60
2023-04-25T22:52:42.404Z,0.77
2023-04-25T22:55:12.348Z,0.83
2023-04-25T22:57:42.486Z,0.60
2023-04-25T23:00:16.545Z,1.30
2023-04-25T23:02:46.512Z,0.60
2023-04-25T23:05:15.521Z,1.37
2023-04-25T23:07:44.609Z,1.03
2023-04-25T23:10:13.189Z,1.00
2023-04-25T23:12:42.790Z,0.80
2023-04-25T23:15:12.633Z,0.90
2023-04-25T23:17:41.098Z,0.63
2023-04-25T23:20:11.327Z,0.60
2023-04-25T23:22:39.509Z,1.17
2023-04-25T23:25:08.984Z,0.50
2023-04-25T23:27:37.332Z,1.20
2023-04-25T23:30:08.720Z,0.60
2023-04-25T23:32:37.007Z,1.00
2023-04-25T23:35:05.932Z,1.10
2023-04-25T23:37:34.692Z,0.50
2023-04-25T23:40:05.743Z,1.13
2023-04-25T23:42:33.782Z,0.60
2023-04-25T23:45:01.751Z,0.73
2023-04-25T23:47:31.192Z,0.50
2023-04-25T23:49:59.364Z,0.80
2023-04-25T23:52:28.315Z,0.90
2023-04-25T23:54:56.618Z,1.37
2023-04-25T23:57:24.686Z,0.33
2023-04-25T23:59:52.689Z,1.10
